createdAt,value
2017-09-17T00:01:52.130Z,83.30
2017-09-17T00:04:19.627Z,83.00
2017-09-17T00:06:47.205Z,83.10
2017-09-17T00:09:15.453Z,83.00
2017-09-17T00:11:42.978Z,83.00
2017-09-17T00:14:10.468Z,83.00
2017-09-17T00:16:37.951Z,82.90
2017-09-17T00:19:06.232Z,83.50
2017-09-17T00:21:34.528Z,83.50
2017-09-17T00:24:02.033Z,83.50
2017-09-17T00:26:29.549Z,83.50
2017-09-17T00:28:57.028Z,83.20
2017-09-17T00:31:24.551Z,83.10
2017-09-17T00:33:52.791Z,83.60
2017-09-17T00:36:20.269Z,83.50
2017-09-17T00:38:47.766Z,83.30
2017-09-17T00:41:15.265Z,82.80
2017-09-17T00:43:42.876Z,82.10
2017-09-17T00:46:10.364Z,82.50
2017-09-17T00:48:37.844Z,82.30
2017-09-17T00:51:05.343Z,83.00
2017-09-17T00:53:33.592Z,82.60
2017-09-17T00:56:01.088Z,82.50
2017-09-17T00:58:28.583Z,81.60
2017-09-17T01:00:56.076Z,81.80
2017-09-17T01:03:23.576Z,82.00
2017-09-17T01:05:51.051Z,82.30
2017-09-17T01:08:18.541Z,82.10
2017-09-17T01:10:46.020Z,81.50
2017-09-17T01:13:14.284Z,80.90
2017-09-17T01:15:41.857Z,80.90
2017-09-17T01:18:10.112Z,80.80
2017-09-17T01:20:37.611Z,80.80
2017-09-17T01:23:05.117Z,80.30
2017-09-17T01:25:32.608Z,80.20
2017-09-17T01:28:00.907Z,81.60
2017-09-17T01:30:28.375Z,81.60
2017-09-17T01:32:55.899Z,82.00
2017-09-17T01:35:24.136Z,82.00
2017-09-17T01:37:51.629Z,81.90
2017-09-17T01:40:19.176Z,82.30
2017-09-17T01:42:46.660Z,82.60
2017-09-17T01:45:14.921Z,83.00
2017-09-17T01:47:43.196Z,83.20
2017-09-17T01:50:11.460Z,83.30
2017-09-17T01:52:38.969Z,83.30
2017-09-17T01:55:06.449Z,83.30
2017-09-17T01:57:33.966Z,83.10
2017-09-17T02:00:02.219Z,82.90
2017-09-17T02:02:30.026Z,83.40
2017-09-17T02:04:57.535Z,82.70
2017-09-17T02:07:25.003Z,82.60
2017-09-17T02:09:52.547Z,82.90
2017-09-17T02:12:20.056Z,83.50
2017-09-17T02:14:47.547Z,83.30
2017-09-17T02:17:15.056Z,83.20
2017-09-17T02:19:43.300Z,83.20
2017-09-17T02:22:11.580Z,82.70
2017-09-17T02:24:39.201Z,82.70
2017-09-17T02:27:06.685Z,82.40
2017-09-17T02:29:34.191Z,82.60
2017-09-17T02:32:02.440Z,82.00
2017-09-17T02:34:29.956Z,82.00
2017-09-17T02:36:57.444Z,81.80
2017-09-17T02:39:24.919Z,81.60
2017-09-17T02:41:53.200Z,82.40
2017-09-17T02:44:20.676Z,81.80
2017-09-17T02:46:49.060Z,82.20
2017-09-17T02:49:17.336Z,82.20
2017-09-17T02:51:45.605Z,82.50
2017-09-17T02:54:13.881Z,82.10
2017-09-17T02:56:42.160Z,82.10
2017-09-17T02:59:10.440Z,82.20
2017-09-17T03:01:38.690Z,82.00
2017-09-17T03:04:06.173Z,82.00
2017-09-17T03:06:34.431Z,81.70
2017-09-17T03:09:01.936Z,82.70
2017-09-17T03:11:29.433Z,83.10
2017-09-17T03:13:57.007Z,83.00
2017-09-17T03:16:24.496Z,83.00
2017-09-17T03:18:51.983Z,82.90
2017-09-17T03:21:19.495Z,83.60
2017-09-17T03:23:47.776Z,82.80
2017-09-17T03:26:16.028Z,82.80
2017-09-17T03:28:43.523Z,82.80
2017-09-17T03:31:11.008Z,82.60
2017-09-17T03:33:38.508Z,82.70
2017-09-17T03:36:06.005Z,82.60
2017-09-17T03:38:33.463Z,82.80
2017-09-17T03:41:00.940Z,82.40
2017-09-17T03:43:28.442Z,82.60
2017-09-17T03:45:55.911Z,81.50
2017-09-17T03:48:24.203Z,82.50
2017-09-17T03:50:51.688Z,82.50
2017-09-17T03:53:19.170Z,82.50
2017-09-17T03:55:46.660Z,82.50
2017-09-17T03:58:14.135Z,82.50
2017-09-17T04:00:41.640Z,83.30
2017-09-17T04:03:09.173Z,82.50
2017-09-17T04:05:36.663Z,82.70
2017-09-17T04:08:04.157Z,82.80
2017-09-17T04:10:32.428Z,82.70
2017-09-17T04:13:00.703Z,82.60
2017-09-17T04:15:28.964Z,82.80
2017-09-17T04:17:56.446Z,82.80
2017-09-17T04:20:24.718Z,82.80
2017-09-17T04:22:52.972Z,82.70
2017-09-17T04:25:20.455Z,82.70
2017-09-17T04:27:48.710Z,82.80
2017-09-17T04:30:16.196Z,82.80
2017-09-17T04:32:44.445Z,82.40
2017-09-17T04:35:11.939Z,82.40
2017-09-17T04:37:40.203Z,82.30
2017-09-17T04:40:08.456Z,82.30
2017-09-17T04:42:35.928Z,82.10
2017-09-17T04:45:03.427Z,82.60
2017-09-17T09:09:18.447Z,82.40
2017-09-17T09:11:45.938Z,73.00
2017-09-17T09:14:14.207Z,71.40
2017-09-17T09:16:42.483Z,72.10
2017-09-17T09:19:10.729Z,71.70
2017-09-17T09:21:38.240Z,71.70
2017-09-17T09:24:05.723Z,72.00
2017-09-17T09:26:33.196Z,72.30
2017-09-17T09:29:00.683Z,73.00
2017-09-17T09:31:28.159Z,73.20
2017-09-17T09:33:56.523Z,73.50
2017-09-17T09:36:23.995Z,73.40
2017-09-17T09:38:52.248Z,72.90
2017-09-17T09:41:19.740Z,72.80
2017-09-17T09:43:47.283Z,72.70
2017-09-17T09:46:15.553Z,72.30
2017-09-17T09:48:43.039Z,72.30
2017-09-17T09:51:10.539Z,72.90
2017-09-17T09:53:38.027Z,71.60
2017-09-17T09:56:06.277Z,71.90
2017-09-17T09:58:33.808Z,71.80
2017-09-17T10:01:01.321Z,71.90
2017-09-17T10:03:28.775Z,72.20
2017-09-17T10:05:56.439Z,71.40
2017-09-17T10:08:24.686Z,71.40
2017-09-17T10:10:52.184Z,71.30
2017-09-17T10:13:20.424Z,70.80
2017-09-17T10:15:47.920Z,70.70
2017-09-17T10:18:16.183Z,68.90
2017-09-17T10:20:44.435Z,68.60
2017-09-17T10:23:11.928Z,68.40
2017-09-17T10:25:40.174Z,65.30
2017-09-17T10:28:07.656Z,65.20
2017-09-17T10:30:35.168Z,63.80
2017-09-17T10:33:02.716Z,63.90
2017-09-17T10:35:30.293Z,61.30
2017-09-17T10:37:57.771Z,61.70
2017-09-17T10:40:25.247Z,58.90
2017-09-17T10:42:52.770Z,58.90
2017-09-17T10:45:20.260Z,61.00
2017-09-17T10:47:47.756Z,61.30
2017-09-17T10:50:15.243Z,60.10
2017-09-17T10:52:42.729Z,59.30
2017-09-17T10:55:10.216Z,59.30
2017-09-17T10:57:38.455Z,58.30
2017-09-17T11:00:05.955Z,58.20
2017-09-17T11:02:34.198Z,58.20
2017-09-17T11:05:03.180Z,57.50
2017-09-17T11:07:30.672Z,57.50
2017-09-17T11:09:58.911Z,56.30
2017-09-17T11:12:26.413Z,56.30
2017-09-17T11:14:54.652Z,58.10
2017-09-17T11:17:22.899Z,57.60
2017-09-17T11:19:50.396Z,57.50
2017-09-17T11:22:17.874Z,56.80
2017-09-17T11:24:46.871Z,55.30
2017-09-17T11:27:15.122Z,55.40
2017-09-17T11:29:42.615Z,55.40
2017-09-17T11:32:10.872Z,55.40
2017-09-17T11:34:38.347Z,55.30
2017-09-17T11:37:06.647Z,56.40
2017-09-17T11:39:34.123Z,56.40
2017-09-17T11:42:01.599Z,57.20
2017-09-17T11:44:29.086Z,56.70
2017-09-17T11:46:57.333Z,57.00
2017-09-17T11:49:24.840Z,56.90
2017-09-17T11:51:52.328Z,57.20
2017-09-17T11:54:19.839Z,57.60
2017-09-17T11:56:48.112Z,57.30
2017-09-17T11:59:16.360Z,57.50
2017-09-17T12:01:43.863Z,57.50
2017-09-17T12:04:12.104Z,57.80
2017-09-17T12:06:39.587Z,57.80
2017-09-17T12:09:07.841Z,57.50
2017-09-17T12:11:35.316Z,57.40
2017-09-17T12:14:03.579Z,58.00
2017-09-17T12:16:32.560Z,57.70
2017-09-17T12:19:00.047Z,57.70
2017-09-17T12:21:28.299Z,56.30
2017-09-17T12:23:55.775Z,56.30
2017-09-17T12:26:24.048Z,54.00
2017-09-17T12:28:51.524Z,54.00
2017-09-17T12:31:19.761Z,55.60
2017-09-17T12:33:47.254Z,55.60
2017-09-17T12:36:15.531Z,55.80
2017-09-17T12:38:43.797Z,56.10
2017-09-17T12:41:11.271Z,56.10
2017-09-17T12:43:39.511Z,56.70
2017-09-17T12:46:07.031Z,56.60
2017-09-17T12:48:34.497Z,57.20
2017-09-17T12:51:02.048Z,57.80
2017-09-17T12:53:29.517Z,56.80
2017-09-17T12:55:56.989Z,56.60
2017-09-17T12:58:24.475Z,57.20
2017-09-17T13:00:51.949Z,59.80
2017-09-17T13:03:20.226Z,59.70
2017-09-17T13:05:48.468Z,60.90
2017-09-17T13:08:15.960Z,61.00
2017-09-17T13:10:44.209Z,60.70
2017-09-17T13:13:11.815Z,60.60
2017-09-17T13:15:39.364Z,60.60
2017-09-17T13:18:07.666Z,58.30
2017-09-17T13:20:35.224Z,58.20
2017-09-17T13:23:02.699Z,60.10
2017-09-17T13:25:30.175Z,54.60
2017-09-17T13:27:57.659Z,52.20
2017-09-17T13:30:25.908Z,50.10
2017-09-17T13:32:53.406Z,50.10
2017-09-17T13:35:21.657Z,51.80
2017-09-17T13:37:49.127Z,51.80
2017-09-17T13:40:16.623Z,49.80
2017-09-17T13:42:44.132Z,49.40
2017-09-17T13:45:11.648Z,47.00
2017-09-17T13:47:39.120Z,46.80
2017-09-17T13:50:06.596Z,45.60
2017-09-17T13:52:34.076Z,42.90
2017-09-17T13:55:01.550Z,43.60
2017-09-17T13:57:29.819Z,41.20
2017-09-17T14:00:00.697Z,38.90
2017-09-17T14:02:34.044Z,38.70
2017-09-17T14:08:20.124Z,36.50
2017-09-17T14:10:51.274Z,39.40
2017-09-17T14:13:18.752Z,41.70
2017-09-17T14:15:46.235Z,43.00
2017-09-17T14:18:14.479Z,43.50
2017-09-17T14:20:41.967Z,43.50
2017-09-17T14:23:10.212Z,46.00
2017-09-17T14:25:37.688Z,46.00
2017-09-17T14:28:05.172Z,46.90
2017-09-17T14:30:33.403Z,48.10
2017-09-17T14:33:00.983Z,48.00
2017-09-17T14:35:28.487Z,49.40
2017-09-17T14:37:56.023Z,48.70
2017-09-17T14:40:24.282Z,48.20
2017-09-17T14:42:51.750Z,48.20
2017-09-17T14:45:20.008Z,47.70
2017-09-17T14:47:47.484Z,47.60
2017-09-17T14:50:14.979Z,49.00
2017-09-17T14:52:42.470Z,48.60
2017-09-17T14:55:10.896Z,50.00
2017-09-17T14:57:38.391Z,48.50
2017-09-17T15:00:05.887Z,48.00
2017-09-17T15:02:33.359Z,47.80
2017-09-17T15:05:01.881Z,49.00
2017-09-17T15:07:29.351Z,48.90
2017-09-17T15:09:56.858Z,49.60
2017-09-17T15:12:25.128Z,49.10
2017-09-17T15:14:53.368Z,48.60
2017-09-17T15:17:20.872Z,48.50
2017-09-17T15:19:49.099Z,48.20
2017-09-17T15:22:16.607Z,48.10
2017-09-17T15:24:44.840Z,48.70
2017-09-17T15:27:12.314Z,48.60
2017-09-17T15:29:40.573Z,48.90
2017-09-17T15:32:08.063Z,48.80
2017-09-17T15:34:36.323Z,48.10
2017-09-17T15:37:04.584Z,47.90
2017-09-17T15:39:32.067Z,47.80
2017-09-17T15:42:00.481Z,48.50
2017-09-17T15:44:27.958Z,48.70
2017-09-17T15:46:55.496Z,48.40
2017-09-17T15:49:22.992Z,49.20
2017-09-17T15:51:50.471Z,50.50
2017-09-17T15:54:17.956Z,51.10
2017-09-17T15:56:46.228Z,51.90
2017-09-17T15:59:14.493Z,52.30
2017-09-17T16:01:41.972Z,52.30
2017-09-17T16:04:10.217Z,53.20
2017-09-17T16:06:37.704Z,53.20
2017-09-17T16:09:05.952Z,54.40
2017-09-17T16:11:35.169Z,54.30
2017-09-17T16:14:03.407Z,54.10
2017-09-17T16:16:30.884Z,54.20
2017-09-17T16:18:59.176Z,54.00
2017-09-17T16:21:27.420Z,54.00
2017-09-17T16:23:54.931Z,54.00
2017-09-17T16:26:23.168Z,53.20
2017-09-17T16:28:50.655Z,53.20
2017-09-17T16:31:18.915Z,54.50
2017-09-17T16:33:47.155Z,56.80
2017-09-17T16:36:14.655Z,56.80
2017-09-17T16:38:42.899Z,58.50
2017-09-17T16:41:10.372Z,58.50
2017-09-17T16:43:37.869Z,59.00
2017-09-17T16:46:06.126Z,59.60
2017-09-17T16:48:34.396Z,60.10
2017-09-17T16:51:02.644Z,60.10
2017-09-17T16:53:30.155Z,60.00
2017-09-17T16:55:58.412Z,58.20
2017-09-17T16:58:26.656Z,58.50
2017-09-17T17:00:54.127Z,58.50
2017-09-17T17:03:21.709Z,57.90
2017-09-17T17:05:49.953Z,59.00
2017-09-17T17:08:17.434Z,58.90
2017-09-17T17:10:44.924Z,59.10
2017-09-17T17:13:12.404Z,59.80
2017-09-17T17:15:39.870Z,60.50
2017-09-17T17:18:07.360Z,61.10
2017-09-17T17:20:34.836Z,61.00
2017-09-17T17:23:03.081Z,62.90
2017-09-17T17:25:30.584Z,62.10
2017-09-17T17:27:58.832Z,62.90
2017-09-17T17:30:26.315Z,62.80
2017-09-17T17:32:54.572Z,64.10
2017-09-17T17:35:23.547Z,64.00
2017-09-17T17:37:51.011Z,64.00
2017-09-17T17:40:18.509Z,64.60
2017-09-17T17:42:46.051Z,64.70
2017-09-17T17:45:14.325Z,65.50
2017-09-17T17:47:42.584Z,65.50
2017-09-17T17:50:10.063Z,65.50
2017-09-17T17:52:38.315Z,66.70
2017-09-17T17:55:05.800Z,66.00
2017-09-17T17:57:34.042Z,65.90
2017-09-17T18:00:01.512Z,65.90
2017-09-17T18:02:29.023Z,64.20
2017-09-17T18:04:56.492Z,64.30
2017-09-17T18:07:24.000Z,65.20
2017-09-17T18:09:52.272Z,65.70
2017-09-17T18:12:19.745Z,65.20
2017-09-17T18:14:48.054Z,63.80
2017-09-17T18:17:15.543Z,63.80
2017-09-17T18:19:43.016Z,64.10
2017-09-17T18:22:10.492Z,64.50
2017-09-17T18:24:38.748Z,65.10
2017-09-17T18:27:06.224Z,64.40
2017-09-17T18:29:34.497Z,63.60
2017-09-17T18:32:02.819Z,64.00
2017-09-17T18:34:30.300Z,64.00
2017-09-17T18:36:57.836Z,63.20
2017-09-17T18:39:25.313Z,62.90
2017-09-17T18:41:52.820Z,62.40
2017-09-17T18:44:21.063Z,63.10
2017-09-17T18:46:48.589Z,63.00
2017-09-17T18:49:16.073Z,62.80
2017-09-17T18:51:43.551Z,63.10
2017-09-17T18:54:11.020Z,62.90
2017-09-17T18:56:39.275Z,63.50
2017-09-17T18:59:06.749Z,63.40
2017-09-17T19:01:35.035Z,64.00
2017-09-17T19:04:03.296Z,64.20
2017-09-17T19:06:30.771Z,64.10
2017-09-17T19:08:59.044Z,64.50
2017-09-17T19:11:27.301Z,64.90
2017-09-17T19:13:54.783Z,64.90
2017-09-17T19:16:23.049Z,65.40
2017-09-17T19:18:50.532Z,65.40
2017-09-17T19:21:18.799Z,65.70
2017-09-17T19:23:47.049Z,66.30
2017-09-17T19:26:14.545Z,66.30
2017-09-17T19:28:42.037Z,66.70
2017-09-17T19:31:09.511Z,67.20
2017-09-17T19:33:37.013Z,67.40
2017-09-17T19:36:05.264Z,68.50
2017-09-17T19:38:32.739Z,68.40
2017-09-17T19:41:00.994Z,69.40
2017-09-17T19:43:28.467Z,69.40
2017-09-17T19:45:55.972Z,70.10
2017-09-17T19:48:23.448Z,70.20
2017-09-17T19:50:50.932Z,71.00
2017-09-17T19:53:19.216Z,71.40
2017-09-17T19:55:46.693Z,71.30
2017-09-17T19:58:14.960Z,71.40
2017-09-17T20:00:43.200Z,71.10
2017-09-17T20:03:10.684Z,71.10
2017-09-17T20:05:38.178Z,71.30
2017-09-17T20:08:05.663Z,70.80
2017-09-17T20:10:33.165Z,71.50
2017-09-17T20:13:01.428Z,71.60
2017-09-17T20:15:28.908Z,71.60
2017-09-17T20:17:57.169Z,71.80
2017-09-17T20:20:24.651Z,71.60
2017-09-17T20:22:52.924Z,71.30
2017-09-17T20:25:21.189Z,71.30
2017-09-17T20:27:49.441Z,71.60
2017-09-17T20:30:16.936Z,71.60
2017-09-17T20:32:44.484Z,71.90
2017-09-17T20:35:12.752Z,72.20
2017-09-17T20:37:40.223Z,72.20
2017-09-17T20:40:08.475Z,72.60
2017-09-17T20:42:35.989Z,72.60
2017-09-17T20:45:03.481Z,72.70
2017-09-17T20:47:31.036Z,72.60
2017-09-17T20:49:58.533Z,73.00
2017-09-17T20:52:26.776Z,74.10
2017-09-17T20:54:54.271Z,73.90
2017-09-17T20:57:22.503Z,74.60
2017-09-17T20:59:50.019Z,74.50
2017-09-17T21:02:18.272Z,74.70
2017-09-17T21:04:46.527Z,75.00
2017-09-17T21:07:14.056Z,74.90
2017-09-17T21:09:41.583Z,75.20
2017-09-17T21:12:09.853Z,75.70
2017-09-17T21:14:38.095Z,75.70
2017-09-17T21:17:05.584Z,75.70
2017-09-17T21:19:33.853Z,75.50
2017-09-17T21:22:02.102Z,75.40
2017-09-17T21:24:29.608Z,75.30
2017-09-17T21:26:57.116Z,75.40
2017-09-17T21:29:24.607Z,75.40
2017-09-17T21:31:52.105Z,75.40
2017-09-17T21:34:19.592Z,75.10
2017-09-17T21:36:47.172Z,75.20
2017-09-17T21:39:14.657Z,75.00
2017-09-17T21:41:42.908Z,75.20
2017-09-17T21:44:10.600Z,75.20
2017-09-17T21:46:38.848Z,74.30
2017-09-17T21:49:07.107Z,73.10
2017-09-17T21:51:34.587Z,73.10
2017-09-17T21:54:03.572Z,73.30
2017-09-17T21:56:31.844Z,73.00
2017-09-17T21:58:59.308Z,73.10
2017-09-17T22:01:26.819Z,74.10
2017-09-17T22:03:54.296Z,73.20
2017-09-17T22:06:21.776Z,72.40
2017-09-17T22:08:49.272Z,72.70
2017-09-17T22:11:17.519Z,72.30
2017-09-17T22:13:45.035Z,72.30
2017-09-17T22:16:12.525Z,72.70
2017-09-17T22:18:39.992Z,72.50
2017-09-17T22:21:07.476Z,72.50
2017-09-17T22:23:35.784Z,71.50
2017-09-17T22:26:03.267Z,71.50
2017-09-17T22:28:30.743Z,71.50
2017-09-17T22:30:58.220Z,71.80
2017-09-17T22:33:26.479Z,72.20
2017-09-17T22:35:53.971Z,72.20
2017-09-17T22:38:22.229Z,72.40
2017-09-17T22:40:49.701Z,72.40
2017-09-17T22:43:17.940Z,72.40
2017-09-17T22:45:45.423Z,72.40
2017-09-17T22:48:13.659Z,73.10
2017-09-17T22:50:41.151Z,73.10
2017-09-17T22:53:08.631Z,72.20
2017-09-17T22:55:36.913Z,72.70
2017-09-17T22:58:05.162Z,72.20
2017-09-17T23:00:33.404Z,72.50
2017-09-17T23:03:00.903Z,72.50
2017-09-17T23:05:29.147Z,71.60
2017-09-17T23:07:56.632Z,71.40
2017-09-17T23:10:24.125Z,70.30
2017-09-17T23:12:51.603Z,69.80
2017-09-17T23:15:20.419Z,69.50
2017-09-17T23:17:47.907Z,69.30
2017-09-17T23:20:16.148Z,68.70
2017-09-17T23:22:43.711Z,69.40
2017-09-17T23:25:11.193Z,69.00
2017-09-17T23:27:39.476Z,70.90
2017-09-17T23:30:07.720Z,72.20
2017-09-17T23:32:35.189Z,72.20
2017-09-17T23:35:02.681Z,73.30
2017-09-17T23:37:30.153Z,75.80
2017-09-17T23:39:57.644Z,76.20
2017-09-17T23:42:25.120Z,76.30
2017-09-17T23:44:52.711Z,77.10
2017-09-17T23:47:20.968Z,78.50
2017-09-17T23:49:48.445Z,79.20
2017-09-17T23:52:16.699Z,79.10
2017-09-17T23:54:44.176Z,79.10
2017-09-17T23:57:12.415Z,79.60
2017-09-17T23:59:39.895Z,79.50
